This is the latest recevied weather packets stored in our database for station/object N2OCK. If no packets are shown the sender has not sent any weather packets the latest 10 day(s).
| Time | Temp. | Humidity | Pressure | Rain* | Wind** | Luminosity | Snow |
|---|---|---|---|---|---|---|---|
| 1777998791 | 20.56° C | 65% | 1011.4 hPa | 0 mm | - | 728 W/m² | - |
| 1777998488 | 20° C | 68% | 1011.4 hPa | 0 mm | - | 728 W/m² | - |
| 1777998184 | 20.56° C | 67% | 1011.3 hPa | 0 mm | - | 725 W/m² | - |
| 1777997882 | 21.67° C | 65% | 1011.3 hPa | 0 mm | - | 724 W/m² | - |
| 1777997579 | 21.11° C | 65% | 1011.3 hPa | 0 mm | - | 720 W/m² | - |
| 1777997276 | 21.67° C | 63% | 1011.6 hPa | 0 mm | - | 721 W/m² | - |
| 1777996974 | 21.11° C | 65% | 1011.6 hPa | 0 mm | - | 715 W/m² | - |
| 1777996670 | 21.67° C | 64% | 1011.7 hPa | 0 mm | - | 712 W/m² | - |
| 1777996366 | 21.67° C | 63% | 1011.5 hPa | 0 mm | - | 706 W/m² | - |
| 1777996063 | 21.67° C | 64% | 1011.4 hPa | 0 mm | - | 700 W/m² | - |
| 1777995759 | 21.11° C | 64% | 1011.5 hPa | 0 mm | - | 697 W/m² | - |
| 1777995456 | 21.11° C | 64% | 1011.7 hPa | 0 mm | - | 692 W/m² | - |
| 1777995153 | 20.56° C | 66% | 1011.6 hPa | 0 mm | - | 687 W/m² | - |
| 1777994850 | 20.56° C | 65% | 1011.9 hPa | 0 mm | - | 679 W/m² | - |
| 1777994546 | 20° C | 66% | 1011.8 hPa | 0 mm | - | 673 W/m² | - |
| 1777994241 | 20.56° C | 65% | 1011.8 hPa | 0 mm | - | 666 W/m² | - |
| 1777993938 | 20.56° C | 66% | 1012 hPa | 0 mm | - | 659 W/m² | - |
| 1777993635 | 20° C | 67% | 1012 hPa | 0 mm | - | 649 W/m² | - |
| 1777993332 | 20° C | 68% | 1012.1 hPa | 0 mm | - | 642 W/m² | - |
| 1777993032 | 20° C | 69% | 1012.1 hPa | 0 mm | - | 630 W/m² | - |
| 1777992731 | 19.44° C | 69% | 1012.1 hPa | 0 mm | - | 627 W/m² | - |
| 1777992428 | 20° C | 68% | 1012.1 hPa | 0 mm | - | 620 W/m² | - |
| 1777992126 | 20° C | 69% | 1012.1 hPa | 0 mm | - | 612 W/m² | - |
| 1777991823 | 19.44° C | 70% | 1012.2 hPa | 0 mm | - | 603 W/m² | - |
| 1777991520 | 19.44° C | 70% | 1011.9 hPa | 0 mm | - | 590 W/m² | - |
* Rain latest hour (hover to see other rain measurements)
** Current wind speed in m/s (hover to see current wind gust speed)